Time;durP1;ratioP1;P1;durP2;ratioP2;P2;SDS_P1;SDS_P2;PMS_P1;PMS_P2;Temp;Humidity;BMP_temperature;BMP_pressure;BME280_temperature;BME280_humidity;BME280_pressure;Samples;Min_cycle;Max_cycle;Signal;HPM_P1;HPM_P2
2022/05/01 00:00:49;;;;;;;2.85;2.75;;;9.40;99.90;;;;;;4192745;28;20087;-82
2022/05/01 00:02:51;;;;;;;2.63;2.53;;;9.40;99.90;;;;;;4196918;28;20459;-82
2022/05/01 00:04:53;;;;;;;2.78;2.67;;;9.40;99.90;;;;;;4194761;28;20048;-82
2022/05/01 00:06:55;;;;;;;3.55;2.65;;;9.30;99.90;;;;;;4194336;28;20047;-82
2022/05/01 00:08:58;;;;;;;2.05;2.05;;;9.40;99.90;;;;;;4162197;28;20068;-82
2022/05/01 00:11:01;;;;;;;2.30;2.30;;;9.30;99.90;;;;;;4195960;28;20036;-82
2022/05/01 00:13:15;;;;;;;3.60;2.08;;;9.30;99.90;;;;;;4193320;28;20075;-82
2022/05/01 00:15:17;;;;;;;2.67;2.53;;;9.20;99.90;;;;;;4186161;28;20087;-82
2022/05/01 00:17:19;;;;;;;2.88;2.78;;;9.10;99.90;;;;;;4190467;28;20068;-82
2022/05/01 00:19:28;;;;;;;3.40;3.25;;;9.10;99.90;;;;;;4181753;28;20047;-82
2022/05/01 00:21:56;;;;;;;3.30;2.90;;;9.20;99.90;;;;;;4195388;28;20040;-81
2022/05/01 00:23:58;;;;;;;2.83;2.72;;;9.10;99.90;;;;;;4175216;28;20813;-82
2022/05/01 00:26:06;;;;;;;3.53;3.17;;;9.10;99.90;;;;;;4193398;28;20040;-82
2022/05/01 00:28:09;;;;;;;3.92;2.70;;;9.00;99.90;;;;;;4159634;28;20065;-82
2022/05/01 00:30:12;;;;;;;3.97;3.05;;;8.90;99.90;;;;;;4193699;28;20070;-82
2022/05/01 00:32:14;;;;;;;3.15;3.05;;;8.90;99.90;;;;;;4193729;28;20040;-82
2022/05/01 00:36:37;;;;;;;3.33;2.78;;;8.80;99.90;;;;;;4192635;28;20060;-82
2022/05/01 00:38:40;;;;;;;4.07;2.88;;;8.80;99.90;;;;;;4174976;28;20045;-82
2022/05/01 00:40:42;;;;;;;3.15;2.88;;;8.90;99.90;;;;;;4192384;28;20087;-81
2022/05/01 00:42:44;;;;;;;3.33;3.22;;;8.90;99.90;;;;;;4192078;28;20131;-81
2022/05/01 00:44:46;;;;;;;4.00;3.15;;;8.90;99.90;;;;;;4190610;28;20068;-82
2022/05/01 00:46:51;;;;;;;2.35;2.25;;;8.80;99.90;;;;;;4160022;28;20104;-81
2022/05/01 00:48:54;;;;;;;3.08;2.10;;;8.70;99.90;;;;;;4193393;28;20110;-82
2022/05/01 00:50:56;;;;;;;2.58;2.47;;;8.70;99.90;;;;;;4159280;28;20069;-82
2022/05/01 00:52:58;;;;;;;2.38;2.28;;;8.70;99.90;;;;;;4190778;28;20098;-81
2022/05/01 00:55:00;;;;;;;2.42;2.42;;;8.70;99.90;;;;;;4180285;28;20045;-82
2022/05/01 00:57:04;;;;;;;2.72;2.45;;;8.60;99.90;;;;;;4189132;28;20523;-82
2022/05/01 00:59:07;;;;;;;2.38;2.17;;;8.60;99.90;;;;;;4194717;28;20519;-81
2022/05/01 01:01:11;;;;;;;2.88;2.65;;;8.70;99.90;;;;;;4183486;28;20790;-81
2022/05/01 01:03:13;;;;;;;3.13;2.67;;;8.70;99.90;;;;;;4190966;28;20618;-81
2022/05/01 01:05:15;;;;;;;1.98;1.83;;;8.70;99.90;;;;;;4195007;28;20515;-82
2022/05/01 01:07:18;;;;;;;2.58;2.47;;;8.60;99.90;;;;;;4195092;28;20047;-82
2022/05/01 01:09:20;;;;;;;2.75;2.65;;;8.60;99.90;;;;;;4194301;28;20119;-82
2022/05/01 01:11:23;;;;;;;2.97;2.30;;;8.60;99.90;;;;;;4194393;28;20029;-82
2022/05/01 01:13:26;;;;;;;3.03;2.85;;;8.60;99.90;;;;;;4196106;28;20515;-82
2022/05/01 01:15:29;;;;;;;2.85;2.72;;;8.60;99.90;;;;;;4192005;28;20036;-82
2022/05/01 01:17:31;;;;;;;;;;;8.60;99.90;;;;;;4185071;28;20033;-81
2022/05/01 01:19:33;;;;;;;2.38;2.33;;;8.50;99.90;;;;;;4177689;28;20004;-82
2022/05/01 01:21:36;;;;;;;1.85;1.77;;;8.40;99.90;;;;;;4177160;28;20588;-82
2022/05/01 01:23:40;;;;;;;4.20;2.33;;;8.40;99.90;;;;;;4195743;28;20075;-81
2022/05/01 01:25:42;;;;;;;3.42;3.08;;;8.30;99.90;;;;;;4188374;28;20124;-81
2022/05/01 01:27:44;;;;;;;2.88;2.83;;;8.40;99.90;;;;;;4195389;28;20040;-82
2022/05/01 01:32:09;;;;;;;2.70;2.60;;;8.40;99.90;;;;;;4185637;28;20076;-82
2022/05/01 01:34:14;;;;;;;2.88;2.67;;;8.40;99.90;;;;;;4191350;28;20102;-82
2022/05/01 01:36:22;;;;;;;3.00;2.90;;;8.40;99.90;;;;;;4193073;28;20035;-82
2022/05/01 01:38:25;;;;;;;2.45;2.35;;;8.30;99.90;;;;;;4160420;28;20069;-81
2022/05/01 01:41:05;;;;;;;2.22;2.22;;;8.30;99.90;;;;;;4194703;28;20075;-82
2022/05/01 01:43:09;;;;;;;2.45;2.35;;;8.20;99.90;;;;;;4133584;28;20050;-81
2022/05/01 01:45:11;;;;;;;3.17;3.08;;;8.10;99.90;;;;;;4126463;28;20479;-82
2022/05/01 01:47:16;;;;;;;3.00;2.75;;;8.20;99.90;;;;;;4110451;28;20145;-82
2022/05/01 01:49:19;;;;;;;2.42;2.17;;;8.20;99.90;;;;;;4126721;28;20073;-82
2022/05/01 01:51:21;;;;;;;3.35;2.83;;;8.10;99.90;;;;;;4111877;28;20070;-82
2022/05/01 01:53:24;;;;;;;2.60;2.50;;;8.00;99.90;;;;;;4127655;28;20074;-82
2022/05/01 01:55:26;;;;;;;;;;;8.00;99.90;;;;;;4128231;28;20046;-81
2022/05/01 01:57:29;;;;;;;2.67;2.38;;;8.00;99.90;;;;;;4126731;28;20420;-81
2022/05/01 01:59:31;;;;;;;2.72;2.63;;;8.00;99.90;;;;;;4126439;28;20074;-81
2022/05/01 02:01:33;;;;;;;3.83;2.85;;;7.80;99.90;;;;;;4126410;28;20124;-82
2022/05/01 02:03:36;;;;;;;4.90;3.13;;;7.70;99.90;;;;;;4111208;28;20046;-81
2022/05/01 02:05:39;;;;;;;2.75;2.65;;;7.50;99.90;;;;;;4126250;28;20050;-82
2022/05/01 02:07:41;;;;;;;;;;;7.40;99.90;;;;;;4133881;28;20398;-81
2022/05/01 02:09:43;;;;;;;4.05;3.75;;;7.30;99.90;;;;;;4113761;28;19985;-81
2022/05/01 02:11:46;;;;;;;;;;;7.20;99.90;;;;;;4111939;28;20039;-81
2022/05/01 02:13:48;;;;;;;3.58;3.47;;;7.20;99.90;;;;;;4112285;28;19962;-81
2022/05/01 02:15:50;;;;;;;2.95;2.85;;;7.20;99.90;;;;;;4111681;28;20077;-81
2022/05/01 02:17:52;;;;;;;2.95;2.95;;;7.20;99.90;;;;;;4111212;28;20541;-81
2022/05/01 02:19:54;;;;;;;3.15;2.97;;;7.20;99.90;;;;;;4184156;28;20041;-81
2022/05/01 02:21:56;;;;;;;3.38;3.20;;;7.20;99.90;;;;;;4187717;28;20064;-82
2022/05/01 02:23:58;;;;;;;3.53;3.25;;;7.20;99.90;;;;;;4185663;28;20048;-81
2022/05/01 02:26:00;;;;;;;5.40;3.15;;;7.20;99.90;;;;;;4181435;28;21065;-81
2022/05/01 02:28:04;;;;;;;3.72;3.45;;;7.20;99.90;;;;;;4191933;28;20139;-82
2022/05/01 02:30:08;;;;;;;3.35;3.10;;;7.20;99.90;;;;;;4161220;28;20528;-82
2022/05/01 02:32:10;;;;;;;2.90;2.80;;;7.30;99.90;;;;;;4165257;28;20142;-82
2022/05/01 02:34:12;;;;;;;3.38;3.28;;;7.50;99.90;;;;;;4194035;28;20119;-82
2022/05/01 02:36:16;;;;;;;2.67;2.67;;;7.60;99.90;;;;;;4175652;28;20037;-81
2022/05/01 02:38:18;;;;;;;3.63;3.53;;;7.50;99.90;;;;;;4175849;28;20048;-82
2022/05/01 02:40:20;;;;;;;3.28;2.97;;;7.50;99.90;;;;;;4175952;28;20106;-81
2022/05/01 02:42:22;;;;;;;2.80;2.65;;;7.50;99.90;;;;;;4177989;28;20049;-81
2022/05/01 02:44:25;;;;;;;3.45;3.35;;;7.60;99.90;;;;;;4189099;28;20044;-81
2022/05/01 02:46:27;;;;;;;2.92;2.83;;;7.50;99.90;;;;;;4179147;28;20067;-82
2022/05/01 02:48:30;;;;;;;3.05;2.63;;;7.40;99.90;;;;;;4160693;28;20612;-81
2022/05/01 02:50:32;;;;;;;3.95;2.78;;;7.40;99.90;;;;;;4176886;28;20071;-82
2022/05/01 02:52:34;;;;;;;3.47;3.28;;;7.30;99.90;;;;;;4194318;28;20128;-81
2022/05/01 02:54:36;;;;;;;2.75;2.63;;;7.30;99.90;;;;;;4193172;28;20064;-82
2022/05/01 02:56:38;;;;;;;3.50;3.40;;;7.30;99.90;;;;;;4167039;28;20080;-81
2022/05/01 02:58:40;;;;;;;2.55;2.47;;;7.30;99.90;;;;;;4184878;28;20032;-81
2022/05/01 03:00:43;;;;;;;4.75;4.55;;;7.30;99.90;;;;;;4189773;28;20928;-81
2022/05/01 03:02:46;;;;;;;3.13;2.95;;;7.30;99.90;;;;;;4164324;28;20037;-82
2022/05/01 03:04:48;;;;;;;2.83;2.72;;;7.30;99.90;;;;;;4193256;28;20437;-82
2022/05/01 03:06:50;;;;;;;3.72;3.63;;;7.30;99.90;;;;;;4176646;28;20506;-82
2022/05/01 03:08:52;;;;;;;3.22;3.13;;;7.30;99.90;;;;;;4193951;28;20067;-82
2022/05/01 03:10:55;;;;;;;3.28;3.08;;;7.30;99.90;;;;;;4175693;28;20145;-81
2022/05/01 03:12:57;;;;;;;2.65;2.55;;;7.30;99.90;;;;;;4166148;28;20532;-81
2022/05/01 03:14:59;;;;;;;2.83;2.72;;;7.30;99.90;;;;;;4192055;28;20049;-81
2022/05/01 03:17:01;;;;;;;2.42;2.22;;;7.30;99.90;;;;;;4191757;28;20037;-82
2022/05/01 03:23:46;;;;;;;3.08;2.92;;;7.20;99.90;;;;;;4189766;28;20033;-82
2022/05/01 03:25:48;;;;;;;2.95;2.85;;;7.20;99.90;;;;;;4192902;28;20136;-82
2022/05/01 03:27:50;;;;;;;3.83;3.60;;;7.20;99.90;;;;;;4179373;28;20052;-81
2022/05/01 03:32:13;;;;;;;4.47;2.70;;;7.10;99.90;;;;;;4176173;28;20064;-81
2022/05/01 03:34:17;;;;;;;3.10;3.00;;;7.10;99.90;;;;;;4175496;28;20067;-81
2022/05/01 03:36:20;;;;;;;3.22;3.03;;;7.10;99.90;;;;;;4192481;28;20399;-81
2022/05/01 03:38:22;;;;;;;3.38;3.38;;;7.10;99.90;;;;;;4176386;28;20048;-81
2022/05/01 03:40:24;;;;;;;3.35;3.15;;;7.00;99.90;;;;;;4192741;28;20039;-81
2022/05/01 03:42:26;;;;;;;2.78;2.78;;;7.00;99.90;;;;;;4188929;28;20048;-82
2022/05/01 03:44:28;;;;;;;2.70;2.65;;;7.10;99.90;;;;;;4176270;28;20076;-81
2022/05/01 03:46:30;;;;;;;4.65;3.35;;;7.10;99.90;;;;;;4174669;28;20056;-81
2022/05/01 03:48:32;;;;;;;3.17;3.08;;;7.00;99.90;;;;;;4173936;28;20048;-82
2022/05/01 03:50:35;;;;;;;4.75;3.25;;;7.00;99.90;;;;;;4176340;28;20037;-81
2022/05/01 03:52:38;;;;;;;3.42;3.33;;;7.00;99.90;;;;;;4181857;28;20041;-81
2022/05/01 03:54:40;;;;;;;4.60;4.40;;;7.00;99.90;;;;;;4190827;28;20076;-81
2022/05/01 03:56:43;;;;;;;3.65;3.35;;;7.00;99.90;;;;;;4188224;28;20031;-81
2022/05/01 03:58:45;;;;;;;3.17;3.08;;;7.00;99.90;;;;;;4174069;28;20025;-82
2022/05/01 04:00:48;;;;;;;3.50;3.30;;;6.90;99.90;;;;;;4192519;28;20040;-82
2022/05/01 04:02:52;;;;;;;3.47;3.28;;;6.90;99.90;;;;;;4170012;28;20144;-81
2022/05/01 04:04:54;;;;;;;3.10;3.03;;;7.00;99.90;;;;;;4181310;28;20037;-81
2022/05/01 04:06:57;;;;;;;3.33;3.28;;;6.80;99.90;;;;;;4192223;28;20120;-82
2022/05/01 04:09:00;;;;;;;;;;;6.90;99.90;;;;;;4173736;28;20068;-81
2022/05/01 04:11:03;;;;;;;2.75;2.65;;;7.00;99.90;;;;;;4189017;28;20416;-81
2022/05/01 04:13:06;;;;;;;2.83;2.63;;;7.10;99.90;;;;;;4172808;28;20056;-81
2022/05/01 04:15:09;;;;;;;1.92;1.92;;;7.00;99.90;;;;;;4193884;28;20492;-81
2022/05/01 04:17:11;;;;;;;2.80;2.70;;;7.00;99.90;;;;;;4192093;28;20048;-81
2022/05/01 04:19:14;;;;;;;2.60;2.60;;;7.00;99.90;;;;;;4192632;28;20435;-81
2022/05/01 04:21:16;;;;;;;3.30;3.20;;;6.90;99.90;;;;;;4193230;28;20055;-82
2022/05/01 04:23:20;;;;;;;3.28;3.17;;;6.80;99.90;;;;;;4177717;28;20124;-81
2022/05/01 04:25:25;;;;;;;2.65;2.65;;;6.70;99.90;;;;;;4195780;28;20047;-81
2022/05/01 04:27:28;;;;;;;3.42;3.22;;;6.70;99.90;;;;;;4177651;28;20053;-82
2022/05/01 04:29:40;;;;;;;3.70;3.60;;;6.70;99.90;;;;;;4177161;28;20045;-82
2022/05/01 04:31:43;;;;;;;3.65;3.50;;;6.60;99.90;;;;;;4161799;28;20048;-81
2022/05/01 04:33:45;;;;;;;4.25;3.90;;;6.60;99.90;;;;;;4184713;28;20045;-81
2022/05/01 04:35:50;;;;;;;2.83;2.72;;;6.60;99.90;;;;;;4189120;28;20043;-81
2022/05/01 04:37:53;;;;;;;2.50;2.40;;;6.70;99.90;;;;;;4189333;28;20040;-81
2022/05/01 04:39:55;;;;;;;3.20;2.97;;;6.80;99.90;;;;;;4186692;28;20107;-81
2022/05/01 04:41:57;;;;;;;5.00;3.28;;;6.90;99.90;;;;;;4183190;28;20048;-81
2022/05/01 04:43:59;;;;;;;2.83;2.80;;;6.90;99.90;;;;;;4183726;28;20056;-81
2022/05/01 04:46:01;;;;;;;2.55;2.33;;;6.90;99.90;;;;;;4192190;28;20106;-81
2022/05/01 04:48:05;;;;;;;4.55;2.92;;;6.90;99.90;;;;;;4193558;28;20549;-81
2022/05/01 04:50:08;;;;;;;2.67;2.67;;;6.90;99.90;;;;;;4167454;28;20052;-81
2022/05/01 04:52:10;;;;;;;3.92;3.83;;;7.00;99.90;;;;;;4192147;28;20044;-81
2022/05/01 04:54:12;;;;;;;4.05;3.67;;;6.90;99.90;;;;;;4192255;28;20522;-81
2022/05/01 04:58:36;;;;;;;3.08;2.90;;;6.80;99.90;;;;;;4190038;28;20126;-81
2022/05/01 05:00:38;;;;;;;3.47;3.38;;;6.90;99.90;;;;;;4185397;28;20051;-81
2022/05/01 05:02:42;;;;;;;4.43;4.32;;;6.90;99.90;;;;;;4185872;28;20124;-81
2022/05/01 05:04:44;;;;;;;3.08;2.97;;;6.90;99.90;;;;;;4190654;28;20052;-81
2022/05/01 05:06:46;;;;;;;3.35;3.25;;;6.80;99.90;;;;;;4179219;28;20063;-82
2022/05/01 05:11:08;;;;;;;3.97;3.88;;;6.80;99.90;;;;;;4193312;28;20102;-81
2022/05/01 05:13:11;;;;;;;4.25;4.05;;;6.90;99.90;;;;;;4193193;28;20052;-81
2022/05/01 05:15:17;;;;;;;3.45;3.13;;;6.90;99.90;;;;;;4190567;28;20432;-81
2022/05/01 05:17:19;;;;;;;3.90;3.80;;;7.00;99.90;;;;;;4171782;28;20061;-82
2022/05/01 05:19:21;;;;;;;;;;;7.10;99.90;;;;;;4192362;28;20102;-82
2022/05/01 05:21:23;;;;;;;3.05;2.85;;;7.00;99.90;;;;;;4185981;28;20422;-81
2022/05/01 05:23:26;;;;;;;3.60;3.28;;;7.00;99.90;;;;;;4182346;28;20098;-81
2022/05/01 05:25:29;;;;;;;3.60;3.40;;;7.10;99.90;;;;;;4191919;28;20078;-81
2022/05/01 05:27:31;;;;;;;2.80;2.70;;;7.10;99.90;;;;;;4191661;28;20552;-81
2022/05/01 05:29:33;;;;;;;2.88;2.78;;;7.10;99.90;;;;;;4191598;28;20121;-81
2022/05/01 05:31:35;;;;;;;3.42;3.33;;;7.20;99.90;;;;;;4193341;28;20058;-81
2022/05/01 05:33:37;;;;;;;3.08;2.97;;;7.20;99.90;;;;;;4193079;28;20063;-81
2022/05/01 05:35:39;;;;;;;3.47;3.28;;;7.30;99.90;;;;;;4192073;28;20053;-81
2022/05/01 05:37:41;;;;;;;4.32;4.13;;;7.40;99.90;;;;;;4183092;28;20087;-81
2022/05/01 05:39:44;;;;;;;2.92;2.92;;;7.60;99.90;;;;;;4185662;28;20060;-81
2022/05/01 05:41:48;;;;;;;3.15;3.05;;;7.60;99.90;;;;;;4186293;28;20052;-81
2022/05/01 05:43:50;;;;;;;2.90;2.90;;;7.70;99.90;;;;;;4194171;28;20037;-81
2022/05/01 05:45:53;;;;;;;3.28;3.17;;;7.80;99.90;;;;;;4196028;28;20045;-81
2022/05/01 05:47:55;;;;;;;3.85;3.65;;;7.90;99.90;;;;;;4196056;28;20053;-81
2022/05/01 05:49:57;;;;;;;2.92;2.83;;;8.00;99.90;;;;;;4177988;28;20697;-82
2022/05/01 05:52:00;;;;;;;2.63;2.42;;;7.90;99.90;;;;;;4196112;28;20548;-81
2022/05/01 05:54:02;;;;;;;;;;;7.90;99.90;;;;;;4183628;28;20059;-81
2022/05/01 05:56:04;;;;;;;2.35;2.25;;;8.00;99.90;;;;;;4185797;28;20003;-82
2022/05/01 05:58:06;;;;;;;2.83;2.83;;;8.10;99.90;;;;;;4187783;28;20726;-81
2022/05/01 06:00:08;;;;;;;2.63;2.40;;;8.10;99.90;;;;;;4194210;28;20040;-81
2022/05/01 06:02:11;;;;;;;2.53;2.30;;;8.20;99.90;;;;;;4190979;28;20610;-81
2022/05/01 06:04:13;;;;;;;2.90;2.80;;;8.30;99.90;;;;;;4194175;28;20044;-82
2022/05/01 06:06:15;;;;;;;2.33;2.22;;;8.30;99.90;;;;;;4187882;28;20061;-81
2022/05/01 06:08:17;;;;;;;2.53;2.45;;;8.40;99.90;;;;;;4195721;28;20753;-81
2022/05/01 06:10:21;;;;;;;3.28;3.17;;;8.50;99.90;;;;;;4193814;28;20040;-82
2022/05/01 06:12:23;;;;;;;2.58;2.47;;;8.60;99.90;;;;;;4189627;28;20055;-82
2022/05/01 06:14:25;;;;;;;2.17;2.08;;;8.60;99.90;;;;;;4188016;28;20119;-81
2022/05/01 06:16:27;;;;;;;3.20;3.10;;;8.70;99.90;;;;;;4190378;28;20054;-81
2022/05/01 06:18:30;;;;;;;2.28;2.28;;;8.80;99.90;;;;;;4190255;28;20409;-81
2022/05/01 06:20:32;;;;;;;3.15;3.05;;;8.90;99.90;;;;;;4181341;28;20052;-81
2022/05/01 06:22:34;;;;;;;2.50;2.40;;;9.10;99.90;;;;;;4185992;28;20421;-82
2022/05/01 06:24:36;;;;;;;2.40;2.30;;;9.20;99.90;;;;;;4162246;28;20120;-82
2022/05/01 06:26:38;;;;;;;5.43;3.17;;;9.20;99.90;;;;;;4177830;28;20717;-81
2022/05/01 06:28:40;;;;;;;2.55;2.35;;;9.20;99.90;;;;;;4190325;28;20041;-82
2022/05/01 06:30:44;;;;;;;3.00;2.78;;;9.30;99.90;;;;;;4192560;28;20789;-81
2022/05/01 06:32:47;;;;;;;2.55;2.45;;;9.40;99.90;;;;;;4170543;28;20053;-82
2022/05/01 06:34:51;;;;;;;2.42;2.33;;;9.40;99.90;;;;;;4191577;28;20045;-81
2022/05/01 06:36:54;;;;;;;2.58;2.47;;;9.50;99.90;;;;;;4189513;28;20052;-82
2022/05/01 06:38:57;;;;;;;3.03;2.83;;;9.60;99.90;;;;;;4181124;28;20053;-82
2022/05/01 06:41:01;;;;;;;2.28;2.17;;;9.70;99.90;;;;;;4190300;28;20404;-82
2022/05/01 06:43:03;;;;;;;2.10;2.10;;;9.70;99.90;;;;;;4193599;28;20048;-82
2022/05/01 06:45:06;;;;;;;3.15;2.95;;;9.80;99.90;;;;;;4183247;28;20063;-82
2022/05/01 06:47:08;;;;;;;2.97;2.80;;;10.00;99.90;;;;;;4189467;28;20113;-81
2022/05/01 06:49:11;;;;;;;2.92;2.72;;;10.10;99.90;;;;;;4193368;28;20045;-82
2022/05/01 06:51:13;;;;;;;2.10;2.10;;;10.10;99.90;;;;;;4193877;28;20048;-82
2022/05/01 06:53:15;;;;;;;4.47;2.67;;;10.20;99.90;;;;;;4192197;28;20048;-82
2022/05/01 06:55:18;;;;;;;;;;;10.30;99.90;;;;;;4189302;28;20040;-81
2022/05/01 06:57:21;;;;;;;2.33;2.25;;;10.40;99.90;;;;;;4192484;28;20762;-82
2022/05/01 06:59:23;;;;;;;24.77;4.18;;;10.60;99.90;;;;;;4194183;28;20110;-82
2022/05/01 07:01:25;;;;;;;2.58;2.47;;;10.70;99.90;;;;;;4192985;28;20462;-82
2022/05/01 07:03:28;;;;;;;3.05;2.95;;;10.90;99.90;;;;;;4184486;28;20076;-82
2022/05/01 07:05:30;;;;;;;3.22;3.13;;;11.00;99.90;;;;;;4187364;28;20064;-82
2022/05/01 07:07:32;;;;;;;6.25;3.80;;;11.00;99.90;;;;;;4189477;28;20048;-82
2022/05/01 07:09:35;;;;;;;3.28;3.17;;;11.10;99.90;;;;;;4189250;28;20402;-82
2022/05/01 07:11:37;;;;;;;2.63;2.53;;;11.20;99.90;;;;;;4181005;28;20048;-82
2022/05/01 07:13:40;;;;;;;2.80;2.70;;;11.40;99.90;;;;;;4185304;28;20092;-82
2022/05/01 07:15:42;;;;;;;;;;;11.50;99.90;;;;;;4193393;28;20041;-82
2022/05/01 07:17:45;;;;;;;2.22;2.13;;;11.60;99.90;;;;;;4161109;28;19924;-82
2022/05/01 07:19:47;;;;;;;1.30;1.30;;;11.70;99.90;;;;;;4180957;28;20047;-82
2022/05/01 07:21:51;;;;;;;;;;;11.80;99.90;;;;;;4189840;28;20489;-82
2022/05/01 07:23:53;;;;;;;2.22;2.08;;;11.80;99.90;;;;;;4193239;28;19924;-82
2022/05/01 07:25:55;;;;;;;52.67;12.18;;;11.90;99.90;;;;;;4193365;28;20057;-82
2022/05/01 07:27:57;;;;;;;2.58;2.47;;;12.10;99.90;;;;;;4190868;28;20150;-82
2022/05/01 07:29:59;;;;;;;3.65;2.42;;;12.20;99.90;;;;;;4191133;28;20056;-82
2022/05/01 07:32:01;;;;;;;2.55;2.35;;;12.30;99.90;;;;;;4190434;28;20059;-81
2022/05/01 07:34:04;;;;;;;1.55;1.55;;;12.30;99.90;;;;;;4194360;28;20056;-82
2022/05/01 07:36:07;;;;;;;2.10;2.00;;;12.40;99.90;;;;;;4176368;28;20971;-82
2022/05/01 07:38:09;;;;;;;1.60;1.40;;;12.60;99.90;;;;;;4189250;28;20041;-82
2022/05/01 07:40:12;;;;;;;90.22;80.68;;;12.70;99.90;;;;;;4191331;28;20037;-82
2022/05/01 07:42:14;;;;;;;22.05;19.90;;;12.90;99.90;;;;;;4190721;28;20443;-82
2022/05/01 07:44:16;;;;;;;1.63;1.60;;;13.00;99.90;;;;;;4193354;28;20048;-82
2022/05/01 07:46:18;;;;;;;203.00;180.95;;;13.10;99.90;;;;;;4183207;28;20048;-82
2022/05/01 07:48:21;;;;;;;4.63;4.45;;;13.20;99.90;;;;;;4189884;28;20051;-82
2022/05/01 07:50:23;;;;;;;1.95;1.48;;;13.20;99.90;;;;;;4193416;28;20078;-82
2022/05/01 07:52:25;;;;;;;1.30;1.10;;;13.30;99.90;;;;;;4179005;28;20087;-82
2022/05/01 07:54:28;;;;;;;1.30;1.30;;;13.30;99.90;;;;;;4193344;28;20480;-82
2022/05/01 07:56:31;;;;;;;1.40;1.40;;;13.50;99.90;;;;;;4192731;28;20048;-82
2022/05/01 07:58:33;;;;;;;3.45;1.48;;;13.40;99.90;;;;;;4193062;28;20048;-82
2022/05/01 08:00:35;;;;;;;2.88;1.40;;;13.40;99.90;;;;;;4176219;28;20544;-82
2022/05/01 08:04:28;;;;;;;1.50;1.23;;;13.60;99.90;;;;;;4189298;28;20450;-82
2022/05/01 08:04:59;;;;;;;5.50;1.30;;;13.90;99.90;;;;;;4191983;28;20044;-82
2022/05/01 08:07:03;;;;;;;1.00;1.00;;;14.30;99.90;;;;;;4189382;28;20295;-86
2022/05/01 08:09:05;;;;;;;1.00;1.00;;;14.50;99.90;;;;;;4179729;28;20640;-85
2022/05/01 08:11:08;;;;;;;2.05;1.20;;;14.80;99.90;;;;;;4192617;28;20054;-85
2022/05/01 08:13:10;;;;;;;1.20;1.20;;;15.10;99.90;;;;;;4192666;28;20135;-86
2022/05/01 08:15:17;;;;;;;1.40;1.40;;;15.10;99.90;;;;;;4192820;28;20045;-86
2022/05/01 08:17:19;;;;;;;3.10;1.30;;;15.20;99.90;;;;;;4188882;28;20086;-86
2022/05/01 08:21:42;;;;;;;1.92;1.00;;;15.30;99.90;;;;;;4192816;28;20052;-85
2022/05/01 08:23:45;;;;;;;1.10;1.10;;;15.10;99.90;;;;;;4174991;28;20053;-85
2022/05/01 08:25:47;;;;;;;1.08;1.00;;;15.40;96.90;;;;;;4180293;28;20083;-85
2022/05/01 08:27:49;;;;;;;0.90;0.90;;;15.80;98.90;;;;;;4183858;28;20473;-85
2022/05/01 08:29:51;;;;;;;1.33;1.23;;;16.20;95.80;;;;;;4199472;28;20070;-85
2022/05/01 08:31:54;;;;;;;2.88;1.10;;;16.30;98.60;;;;;;4174916;28;20135;-84
2022/05/01 08:33:56;;;;;;;1.00;1.00;;;16.80;97.20;;;;;;4193817;28;20048;-85
2022/05/01 08:35:58;;;;;;;0.80;0.80;;;16.80;94.30;;;;;;4174358;28;20045;-84
2022/05/01 08:38:00;;;;;;;1.73;0.90;;;16.80;94.10;;;;;;4182886;28;20083;-85
2022/05/01 08:40:03;;;;;;;2.13;1.92;;;16.70;94.10;;;;;;4179122;28;20063;-85
2022/05/01 08:42:06;;;;;;;0.90;0.80;;;17.00;93.50;;;;;;4186322;28;20048;-84
2022/05/01 08:44:12;;;;;;;1.00;0.90;;;16.70;92.20;;;;;;4187909;28;20125;-85
2022/05/01 08:46:41;;;;;;;1.13;1.00;;;16.80;93.10;;;;;;4193019;28;20052;-85
2022/05/01 08:49:06;;;;;;;0.90;0.90;;;17.30;93.10;;;;;;4167877;28;20444;-85
2022/05/01 08:51:08;;;;;;;0.90;0.90;;;17.30;92.60;;;;;;4187085;28;20127;-85
2022/05/01 08:53:11;;;;;;;0.90;0.90;;;16.90;91.20;;;;;;4182912;28;20400;-84
2022/05/01 08:55:16;;;;;;;1.73;0.90;;;16.90;92.30;;;;;;4192394;28;20092;-85
2022/05/01 08:57:21;;;;;;;1.15;1.15;;;17.00;92.30;;;;;;4194765;28;20036;-85
2022/05/01 08:59:25;;;;;;;1.90;1.75;;;16.70;92.20;;;;;;4194067;28;20139;-85
2022/05/01 09:01:33;;;;;;;1.67;1.40;;;16.50;92.70;;;;;;4185025;28;20044;-85
2022/05/01 09:03:36;;;;;;;2.17;1.10;;;16.60;94.50;;;;;;4177283;28;20048;-85
2022/05/01 09:05:39;;;;;;;1.35;1.35;;;16.30;93.90;;;;;;4181507;28;20119;-84
2022/05/01 09:07:41;;;;;;;;;;;16.30;95.00;;;;;;4193104;28;20044;-85
2022/05/01 09:09:44;;;;;;;1.37;1.27;;;16.30;95.30;;;;;;4179803;28;19920;-84
2022/05/01 09:14:13;;;;;;;1.05;1.05;;;16.40;97.10;;;;;;4189784;28;20044;-84
2022/05/01 09:16:15;;;;;;;1.10;1.10;;;16.30;95.00;;;;;;4197181;28;20504;-84
2022/05/01 09:18:18;;;;;;;;;;;16.30;96.30;;;;;;4193947;28;20071;-84
2022/05/01 09:20:21;;;;;;;3.20;1.45;;;16.30;95.80;;;;;;4197580;28;19920;-84
2022/05/01 09:22:23;;;;;;;1.10;1.10;;;16.50;95.50;;;;;;4186613;28;20058;-84
2022/05/01 09:24:27;;;;;;;1.10;1.10;;;16.20;95.30;;;;;;4185583;28;20060;-84
2022/05/01 09:26:36;;;;;;;1.20;1.15;;;16.30;96.00;;;;;;4194664;28;20109;-84
2022/05/01 09:28:53;;;;;;;1.30;1.20;;;16.50;95.50;;;;;;4194284;28;20136;-84
2022/05/01 09:30:55;;;;;;;1.00;1.00;;;16.80;96.00;;;;;;4172585;28;20137;-84
2022/05/01 09:32:58;;;;;;;1.00;1.00;;;16.80;95.10;;;;;;4184717;28;20526;-84
2022/05/01 09:35:00;;;;;;;1.00;1.00;;;16.60;95.90;;;;;;4189488;28;20055;-84
2022/05/01 09:37:16;;;;;;;1.65;1.10;;;16.60;94.80;;;;;;4177178;28;20053;-84
2022/05/01 09:39:22;;;;;;;1.00;1.00;;;16.60;95.90;;;;;;4181025;28;20049;-85
2022/05/01 09:41:27;;;;;;;1.58;1.00;;;16.80;95.00;;;;;;4182699;28;20443;-84
2022/05/01 09:43:35;;;;;;;1.98;1.15;;;16.60;94.00;;;;;;4187689;28;20127;-85
2022/05/01 09:45:37;;;;;;;1.67;1.00;;;16.80;95.50;;;;;;4193910;28;20129;-85
2022/05/01 09:47:43;;;;;;;2.67;1.00;;;17.30;96.10;;;;;;4189038;28;20613;-85
2022/05/01 09:49:50;;;;;;;1.00;1.00;;;17.10;93.60;;;;;;4186217;28;20120;-85
2022/05/01 09:51:56;;;;;;;1.25;1.15;;;17.10;94.90;;;;;;4176271;28;20060;-85
2022/05/01 09:54:04;;;;;;;4.78;1.10;;;17.10;94.60;;;;;;4194309;28;20496;-86
2022/05/01 09:56:06;;;;;;;2.03;1.00;;;17.10;94.10;;;;;;4191297;28;20049;-85
2022/05/01 09:58:12;;;;;;;1.25;0.98;;;17.30;95.90;;;;;;4194308;28;20139;-85
2022/05/01 10:00:44;;;;;;;1.80;1.65;;;17.40;96.50;;;;;;4170856;28;20419;-85
2022/05/01 10:02:46;;;;;;;1.60;1.00;;;17.30;94.30;;;;;;4193876;28;20064;-86
2022/05/01 10:04:48;;;;;;;2.03;1.92;;;17.10;93.80;;;;;;4187896;28;20075;-85
2022/05/01 10:06:55;;;;;;;1.70;1.00;;;17.00;93.50;;;;;;4194011;28;20132;-85
2022/05/01 10:08:58;;;;;;;1.55;1.45;;;17.00;93.20;;;;;;4191235;28;20057;-85
2022/05/01 10:11:00;;;;;;;1.98;1.33;;;17.40;95.00;;;;;;4180581;28;20053;-85
2022/05/01 10:13:02;;;;;;;;;;;17.50;93.70;;;;;;4170830;28;20055;-86
2022/05/01 10:15:24;;;;;;;1.20;1.10;;;17.60;93.50;;;;;;4191262;28;19982;-85
2022/05/01 10:17:27;;;;;;;1.20;1.10;;;17.40;94.60;;;;;;4184727;28;20037;-85
2022/05/01 10:19:31;;;;;;;2.15;0.98;;;17.20;93.20;;;;;;4186576;28;20132;-86
2022/05/01 10:21:36;;;;;;;1.00;1.00;;;17.20;93.80;;;;;;4194306;28;20053;-85
2022/05/01 10:23:40;;;;;;;1.27;1.10;;;17.20;93.40;;;;;;4179285;28;20437;-86
2022/05/01 10:25:52;;;;;;;3.45;1.00;;;17.00;92.80;;;;;;4194823;28;20057;-86
2022/05/01 10:28:29;;;;;;;0.90;0.90;;;16.80;93.10;;;;;;4194787;28;20099;-86
2022/05/01 10:33:05;;;;;;;1.48;1.30;;;16.80;93.00;;;;;;4194562;28;19920;-86
2022/05/01 10:35:13;;;;;;;0.95;0.90;;;16.80;92.90;;;;;;4194420;28;20056;-86
2022/05/01 10:37:48;;;;;;;2.88;1.20;;;17.10;95.40;;;;;;4192337;28;20140;-86
2022/05/01 10:39:51;;;;;;;1.77;1.20;;;16.90;94.10;;;;;;4173844;28;20055;-86
2022/05/01 10:41:53;;;;;;;1.60;1.45;;;16.90;93.10;;;;;;4192812;28;20044;-85
2022/05/01 10:44:00;;;;;;;;;;;16.90;92.50;;;;;;4193437;28;20060;-86
2022/05/01 10:46:05;;;;;;;1.00;1.00;;;16.80;92.60;;;;;;4190132;28;19983;-86
2022/05/01 10:48:11;;;;;;;1.10;1.10;;;16.70;92.20;;;;;;4189734;28;20060;-86
2022/05/01 10:50:25;;;;;;;2.15;1.20;;;16.60;92.30;;;;;;4193826;28;20047;-86
2022/05/01 10:52:28;;;;;;;1.10;1.10;;;16.80;92.00;;;;;;4193671;28;20052;-86
2022/05/01 10:54:33;;;;;;;1.00;1.00;;;16.60;92.00;;;;;;4184684;28;20067;-86
2022/05/01 10:56:35;;;;;;;2.33;1.00;;;16.60;92.20;;;;;;4188736;28;20516;-85
2022/05/01 10:59:30;;;;;;;1.00;1.00;;;16.50;91.60;;;;;;4190117;28;20723;-85
2022/05/01 11:02:17;;;;;;;2.40;1.48;;;16.50;93.00;;;;;;4192154;28;20111;-86
2022/05/01 11:04:22;;;;;;;1.20;1.20;;;16.40;93.00;;;;;;4140271;28;20045;-86
2022/05/01 11:06:27;;;;;;;1.42;1.33;;;16.40;93.60;;;;;;4135525;28;20095;-86
2022/05/01 11:08:40;;;;;;;1.20;1.10;;;16.40;94.00;;;;;;4125884;28;20054;-86
2022/05/01 11:10:44;;;;;;;;;;;16.40;93.80;;;;;;4142348;28;20069;-85
2022/05/01 11:13:03;;;;;;;1.00;1.00;;;16.30;93.90;;;;;;4142889;28;19921;-86
2022/05/01 11:15:08;;;;;;;2.30;1.10;;;16.20;94.10;;;;;;4156243;28;20148;-85
2022/05/01 11:17:12;;;;;;;1.25;1.25;;;16.10;94.70;;;;;;4141463;28;20042;-86